sensor_id;sensor_type;location;lat;lon;timestamp;P1;durP1;ratioP1;P2;durP2;ratioP2
19341;SDS011;9807;48.258;12.690;2022-10-31T00:01:17;15.03;;;8.67;;
19341;SDS011;9807;48.258;12.690;2022-10-31T00:03:50;14.30;;;8.57;;
19341;SDS011;9807;48.258;12.690;2022-10-31T00:06:19;12.17;;;7.70;;
19341;SDS011;9807;48.258;12.690;2022-10-31T00:08:46;12.10;;;7.03;;
19341;SDS011;9807;48.258;12.690;2022-10-31T00:11:19;8.13;;;5.50;;
19341;SDS011;9807;48.258;12.690;2022-10-31T00:13:47;11.47;;;6.60;;
19341;SDS011;9807;48.258;12.690;2022-10-31T00:16:14;8.77;;;5.90;;
19341;SDS011;9807;48.258;12.690;2022-10-31T00:18:41;13.27;;;7.20;;
19341;SDS011;9807;48.258;12.690;2022-10-31T00:21:06;10.77;;;6.70;;
19341;SDS011;9807;48.258;12.690;2022-10-31T00:23:32;10.20;;;6.50;;
19341;SDS011;9807;48.258;12.690;2022-10-31T00:26:01;9.50;;;6.53;;
19341;SDS011;9807;48.258;12.690;2022-10-31T00:28:28;12.43;;;6.20;;
19341;SDS011;9807;48.258;12.690;2022-10-31T00:31:04;11.37;;;7.07;;
19341;SDS011;9807;48.258;12.690;2022-10-31T00:33:32;11.60;;;7.23;;
19341;SDS011;9807;48.258;12.690;2022-10-31T00:35:59;9.30;;;6.20;;
19341;SDS011;9807;48.258;12.690;2022-10-31T00:38:25;14.17;;;8.00;;
19341;SDS011;9807;48.258;12.690;2022-10-31T00:40:51;20.10;;;9.63;;
19341;SDS011;9807;48.258;12.690;2022-10-31T00:43:16;19.10;;;10.37;;
19341;SDS011;9807;48.258;12.690;2022-10-31T00:45:45;28.23;;;10.67;;
19341;SDS011;9807;48.258;12.690;2022-10-31T00:48:11;10.57;;;7.53;;
19341;SDS011;9807;48.258;12.690;2022-10-31T00:50:37;11.17;;;7.30;;
19341;SDS011;9807;48.258;12.690;2022-10-31T00:53:03;11.83;;;7.23;;
19341;SDS011;9807;48.258;12.690;2022-10-31T00:55:29;10.03;;;6.50;;
19341;SDS011;9807;48.258;12.690;2022-10-31T00:57:54;11.97;;;7.40;;
19341;SDS011;9807;48.258;12.690;2022-10-31T01:00:30;14.33;;;7.93;;
19341;SDS011;9807;48.258;12.690;2022-10-31T01:02:56;12.43;;;7.17;;
19341;SDS011;9807;48.258;12.690;2022-10-31T01:05:22;10.90;;;6.70;;
19341;SDS011;9807;48.258;12.690;2022-10-31T01:07:48;11.53;;;7.10;;
19341;SDS011;9807;48.258;12.690;2022-10-31T01:10:16;9.50;;;6.57;;
19341;SDS011;9807;48.258;12.690;2022-10-31T01:12:45;16.47;;;9.73;;
19341;SDS011;9807;48.258;12.690;2022-10-31T01:15:18;15.13;;;7.80;;
19341;SDS011;9807;48.258;12.690;2022-10-31T01:17:46;10.90;;;6.83;;
19341;SDS011;9807;48.258;12.690;2022-10-31T01:20:16;9.47;;;6.63;;
19341;SDS011;9807;48.258;12.690;2022-10-31T01:22:44;11.37;;;7.00;;
19341;SDS011;9807;48.258;12.690;2022-10-31T01:25:13;9.97;;;6.90;;
19341;SDS011;9807;48.258;12.690;2022-10-31T01:27:39;10.30;;;7.17;;
19341;SDS011;9807;48.258;12.690;2022-10-31T01:30:07;10.53;;;6.80;;
19341;SDS011;9807;48.258;12.690;2022-10-31T01:32:33;12.00;;;7.40;;
19341;SDS011;9807;48.258;12.690;2022-10-31T01:34:58;9.07;;;6.43;;
19341;SDS011;9807;48.258;12.690;2022-10-31T01:37:24;10.33;;;6.83;;
19341;SDS011;9807;48.258;12.690;2022-10-31T01:39:50;9.07;;;6.30;;
19341;SDS011;9807;48.258;12.690;2022-10-31T01:42:18;15.27;;;6.97;;
19341;SDS011;9807;48.258;12.690;2022-10-31T01:44:53;8.90;;;6.00;;
19341;SDS011;9807;48.258;12.690;2022-10-31T01:47:27;15.40;;;6.23;;
19341;SDS011;9807;48.258;12.690;2022-10-31T01:50:11;10.03;;;6.90;;
19341;SDS011;9807;48.258;12.690;2022-10-31T01:52:47;9.47;;;6.70;;
19341;SDS011;9807;48.258;12.690;2022-10-31T01:55:34;8.40;;;6.00;;
19341;SDS011;9807;48.258;12.690;2022-10-31T01:58:09;8.40;;;5.87;;
19341;SDS011;9807;48.258;12.690;2022-10-31T02:00:38;7.43;;;5.60;;
19341;SDS011;9807;48.258;12.690;2022-10-31T02:03:05;8.13;;;5.90;;
19341;SDS011;9807;48.258;12.690;2022-10-31T02:05:31;9.63;;;6.20;;
19341;SDS011;9807;48.258;12.690;2022-10-31T02:10:32;9.70;;;5.83;;
19341;SDS011;9807;48.258;12.690;2022-10-31T02:13:02;7.67;;;5.60;;
19341;SDS011;9807;48.258;12.690;2022-10-31T02:15:29;8.00;;;5.70;;
19341;SDS011;9807;48.258;12.690;2022-10-31T02:17:57;7.90;;;5.63;;
19341;SDS011;9807;48.258;12.690;2022-10-31T02:20:23;8.93;;;5.97;;
19341;SDS011;9807;48.258;12.690;2022-10-31T02:23:20;8.77;;;6.43;;
19341;SDS011;9807;48.258;12.690;2022-10-31T02:31:54;6.80;;;5.17;;
19341;SDS011;9807;48.258;12.690;2022-10-31T02:34:50;9.17;;;5.87;;
19341;SDS011;9807;48.258;12.690;2022-10-31T02:42:17;7.93;;;5.70;;
19341;SDS011;9807;48.258;12.690;2022-10-31T02:44:49;6.83;;;5.00;;
19341;SDS011;9807;48.258;12.690;2022-10-31T02:47:25;8.53;;;5.87;;
19341;SDS011;9807;48.258;12.690;2022-10-31T02:49:58;8.50;;;5.47;;
19341;SDS011;9807;48.258;12.690;2022-10-31T02:52:31;8.93;;;5.63;;
19341;SDS011;9807;48.258;12.690;2022-10-31T02:54:58;6.30;;;5.13;;
19341;SDS011;9807;48.258;12.690;2022-10-31T02:57:31;7.90;;;5.20;;
19341;SDS011;9807;48.258;12.690;2022-10-31T03:00:00;8.17;;;5.60;;
19341;SDS011;9807;48.258;12.690;2022-10-31T03:07:48;8.23;;;5.70;;
19341;SDS011;9807;48.258;12.690;2022-10-31T03:10:40;8.13;;;6.23;;
19341;SDS011;9807;48.258;12.690;2022-10-31T03:13:16;8.83;;;6.47;;
19341;SDS011;9807;48.258;12.690;2022-10-31T03:15:48;29.60;;;6.70;;
19341;SDS011;9807;48.258;12.690;2022-10-31T03:18:26;31.60;;;6.67;;
19341;SDS011;9807;48.258;12.690;2022-10-31T03:21:49;13.67;;;6.90;;
19341;SDS011;9807;48.258;12.690;2022-10-31T03:23:56;8.10;;;5.90;;
19341;SDS011;9807;48.258;12.690;2022-10-31T03:26:24;6.93;;;5.70;;
19341;SDS011;9807;48.258;12.690;2022-10-31T03:31:29;11.67;;;7.43;;
19341;SDS011;9807;48.258;12.690;2022-10-31T03:33:59;18.83;;;7.40;;
19341;SDS011;9807;48.258;12.690;2022-10-31T03:36:33;25.97;;;7.20;;
19341;SDS011;9807;48.258;12.690;2022-10-31T03:39:06;38.40;;;6.93;;
19341;SDS011;9807;48.258;12.690;2022-10-31T03:41:36;16.07;;;6.63;;
19341;SDS011;9807;48.258;12.690;2022-10-31T03:44:12;10.03;;;7.00;;
19341;SDS011;9807;48.258;12.690;2022-10-31T03:46:42;17.93;;;6.93;;
19341;SDS011;9807;48.258;12.690;2022-10-31T03:49:09;21.27;;;7.13;;
19341;SDS011;9807;48.258;12.690;2022-10-31T03:51:43;21.97;;;6.90;;
19341;SDS011;9807;48.258;12.690;2022-10-31T03:57:21;7.63;;;5.80;;
19341;SDS011;9807;48.258;12.690;2022-10-31T03:59:51;5.87;;;5.17;;
19341;SDS011;9807;48.258;12.690;2022-10-31T04:02:24;6.73;;;5.50;;
19341;SDS011;9807;48.258;12.690;2022-10-31T04:04:53;8.00;;;6.00;;
19341;SDS011;9807;48.258;12.690;2022-10-31T04:07:27;13.00;;;6.37;;
19341;SDS011;9807;48.258;12.690;2022-10-31T04:09:58;8.33;;;6.50;;
19341;SDS011;9807;48.258;12.690;2022-10-31T04:12:30;10.27;;;6.63;;
19341;SDS011;9807;48.258;12.690;2022-10-31T04:14:59;8.30;;;6.33;;
19341;SDS011;9807;48.258;12.690;2022-10-31T04:17:31;7.43;;;5.40;;
19341;SDS011;9807;48.258;12.690;2022-10-31T04:20:02;8.03;;;6.43;;
19341;SDS011;9807;48.258;12.690;2022-10-31T04:22:31;10.07;;;6.43;;
19341;SDS011;9807;48.258;12.690;2022-10-31T04:24:56;11.03;;;7.17;;
19341;SDS011;9807;48.258;12.690;2022-10-31T04:27:22;13.90;;;7.17;;
19341;SDS011;9807;48.258;12.690;2022-10-31T04:29:48;15.40;;;6.90;;
19341;SDS011;9807;48.258;12.690;2022-10-31T04:32:13;24.07;;;8.30;;
19341;SDS011;9807;48.258;12.690;2022-10-31T04:34:39;14.50;;;7.17;;
19341;SDS011;9807;48.258;12.690;2022-10-31T04:37:08;10.13;;;7.30;;
19341;SDS011;9807;48.258;12.690;2022-10-31T04:39:33;9.87;;;6.90;;
19341;SDS011;9807;48.258;12.690;2022-10-31T04:41:59;10.23;;;6.97;;
19341;SDS011;9807;48.258;12.690;2022-10-31T04:44:24;11.97;;;7.20;;
19341;SDS011;9807;48.258;12.690;2022-10-31T04:46:50;10.57;;;7.33;;
19341;SDS011;9807;48.258;12.690;2022-10-31T04:49:16;10.87;;;7.80;;
19341;SDS011;9807;48.258;12.690;2022-10-31T04:51:41;11.93;;;7.47;;
19341;SDS011;9807;48.258;12.690;2022-10-31T04:54:07;8.20;;;6.47;;
19341;SDS011;9807;48.258;12.690;2022-10-31T04:56:33;8.17;;;6.27;;
19341;SDS011;9807;48.258;12.690;2022-10-31T04:58:58;8.87;;;5.70;;
19341;SDS011;9807;48.258;12.690;2022-10-31T05:01:24;10.43;;;5.43;;
19341;SDS011;9807;48.258;12.690;2022-10-31T05:03:53;11.53;;;5.90;;
19341;SDS011;9807;48.258;12.690;2022-10-31T05:06:18;7.97;;;5.80;;
19341;SDS011;9807;48.258;12.690;2022-10-31T05:08:44;6.47;;;5.53;;
19341;SDS011;9807;48.258;12.690;2022-10-31T05:11:10;7.47;;;5.73;;
19341;SDS011;9807;48.258;12.690;2022-10-31T05:13:36;6.90;;;5.47;;
19341;SDS011;9807;48.258;12.690;2022-10-31T05:16:01;6.60;;;5.13;;
19341;SDS011;9807;48.258;12.690;2022-10-31T05:18:28;6.47;;;5.47;;
19341;SDS011;9807;48.258;12.690;2022-10-31T05:20:53;7.37;;;5.77;;
19341;SDS011;9807;48.258;12.690;2022-10-31T05:23:19;10.97;;;6.13;;
19341;SDS011;9807;48.258;12.690;2022-10-31T05:25:45;15.00;;;6.07;;
19341;SDS011;9807;48.258;12.690;2022-10-31T05:28:10;6.33;;;5.50;;
19341;SDS011;9807;48.258;12.690;2022-10-31T05:30:36;14.97;;;5.70;;
19341;SDS011;9807;48.258;12.690;2022-10-31T05:33:02;8.13;;;5.70;;
19341;SDS011;9807;48.258;12.690;2022-10-31T05:35:31;6.53;;;5.30;;
19341;SDS011;9807;48.258;12.690;2022-10-31T05:37:58;6.77;;;5.00;;
19341;SDS011;9807;48.258;12.690;2022-10-31T05:40:24;6.63;;;5.37;;
19341;SDS011;9807;48.258;12.690;2022-10-31T05:42:51;7.40;;;5.40;;
19341;SDS011;9807;48.258;12.690;2022-10-31T05:45:18;6.77;;;5.10;;
19341;SDS011;9807;48.258;12.690;2022-10-31T05:47:51;7.23;;;5.37;;
19341;SDS011;9807;48.258;12.690;2022-10-31T05:50:24;9.33;;;4.83;;
19341;SDS011;9807;48.258;12.690;2022-10-31T05:52:58;10.47;;;5.63;;
19341;SDS011;9807;48.258;12.690;2022-10-31T05:55:26;6.00;;;4.80;;
19341;SDS011;9807;48.258;12.690;2022-10-31T05:57:56;6.43;;;4.90;;
19341;SDS011;9807;48.258;12.690;2022-10-31T06:00:22;6.77;;;5.00;;
19341;SDS011;9807;48.258;12.690;2022-10-31T06:02:48;6.43;;;4.93;;
19341;SDS011;9807;48.258;12.690;2022-10-31T06:05:20;7.60;;;5.07;;
19341;SDS011;9807;48.258;12.690;2022-10-31T06:07:54;6.57;;;5.00;;
19341;SDS011;9807;48.258;12.690;2022-10-31T06:10:20;5.40;;;4.83;;
19341;SDS011;9807;48.258;12.690;2022-10-31T06:12:46;5.97;;;4.43;;
19341;SDS011;9807;48.258;12.690;2022-10-31T06:15:19;5.63;;;5.00;;
19341;SDS011;9807;48.258;12.690;2022-10-31T06:17:45;5.90;;;5.00;;
19341;SDS011;9807;48.258;12.690;2022-10-31T06:20:11;7.63;;;5.00;;
19341;SDS011;9807;48.258;12.690;2022-10-31T06:22:37;10.20;;;5.93;;
19341;SDS011;9807;48.258;12.690;2022-10-31T06:25:03;9.53;;;5.10;;
19341;SDS011;9807;48.258;12.690;2022-10-31T06:27:29;5.33;;;4.60;;
19341;SDS011;9807;48.258;12.690;2022-10-31T06:29:55;9.23;;;6.00;;
19341;SDS011;9807;48.258;12.690;2022-10-31T06:32:21;8.30;;;6.13;;
19341;SDS011;9807;48.258;12.690;2022-10-31T06:34:46;5.90;;;4.83;;
19341;SDS011;9807;48.258;12.690;2022-10-31T06:37:18;6.53;;;5.20;;
19341;SDS011;9807;48.258;12.690;2022-10-31T06:39:44;5.87;;;4.73;;
19341;SDS011;9807;48.258;12.690;2022-10-31T06:42:09;9.60;;;5.63;;
19341;SDS011;9807;48.258;12.690;2022-10-31T06:44:35;6.70;;;4.70;;
19341;SDS011;9807;48.258;12.690;2022-10-31T06:47:01;5.53;;;4.57;;
19341;SDS011;9807;48.258;12.690;2022-10-31T06:49:26;6.13;;;4.93;;
19341;SDS011;9807;48.258;12.690;2022-10-31T06:51:52;7.33;;;5.87;;
19341;SDS011;9807;48.258;12.690;2022-10-31T06:54:18;11.43;;;6.20;;
19341;SDS011;9807;48.258;12.690;2022-10-31T06:56:47;10.17;;;5.37;;
19341;SDS011;9807;48.258;12.690;2022-10-31T06:59:13;9.57;;;5.23;;
19341;SDS011;9807;48.258;12.690;2022-10-31T07:01:40;5.80;;;4.83;;
19341;SDS011;9807;48.258;12.690;2022-10-31T07:04:07;5.80;;;4.67;;
19341;SDS011;9807;48.258;12.690;2022-10-31T07:06:36;5.93;;;4.40;;
19341;SDS011;9807;48.258;12.690;2022-10-31T07:09:01;6.57;;;4.70;;
19341;SDS011;9807;48.258;12.690;2022-10-31T07:11:30;6.43;;;5.37;;
19341;SDS011;9807;48.258;12.690;2022-10-31T07:13:56;10.17;;;5.67;;
19341;SDS011;9807;48.258;12.690;2022-10-31T07:16:24;9.70;;;5.40;;
19341;SDS011;9807;48.258;12.690;2022-10-31T07:18:53;5.50;;;4.60;;
19341;SDS011;9807;48.258;12.690;2022-10-31T07:21:18;6.37;;;4.97;;
19341;SDS011;9807;48.258;12.690;2022-10-31T07:23:48;7.30;;;4.60;;
19341;SDS011;9807;48.258;12.690;2022-10-31T07:26:14;8.63;;;5.27;;
19341;SDS011;9807;48.258;12.690;2022-10-31T07:28:43;7.23;;;5.10;;
19341;SDS011;9807;48.258;12.690;2022-10-31T07:31:15;6.90;;;5.27;;
19341;SDS011;9807;48.258;12.690;2022-10-31T07:33:43;7.80;;;5.20;;
19341;SDS011;9807;48.258;12.690;2022-10-31T07:36:09;6.07;;;4.87;;
19341;SDS011;9807;48.258;12.690;2022-10-31T07:38:38;5.60;;;4.67;;
19341;SDS011;9807;48.258;12.690;2022-10-31T07:41:03;6.20;;;4.70;;
19341;SDS011;9807;48.258;12.690;2022-10-31T07:43:29;5.67;;;4.40;;
19341;SDS011;9807;48.258;12.690;2022-10-31T07:45:55;15.37;;;4.90;;
19341;SDS011;9807;48.258;12.690;2022-10-31T07:48:21;4.80;;;4.17;;
19341;SDS011;9807;48.258;12.690;2022-10-31T07:50:47;7.03;;;4.10;;
19341;SDS011;9807;48.258;12.690;2022-10-31T07:53:13;5.10;;;4.30;;
19341;SDS011;9807;48.258;12.690;2022-10-31T07:55:39;8.97;;;4.40;;
19341;SDS011;9807;48.258;12.690;2022-10-31T07:58:09;5.37;;;4.13;;
19341;SDS011;9807;48.258;12.690;2022-10-31T08:00:42;5.90;;;4.30;;
19341;SDS011;9807;48.258;12.690;2022-10-31T08:03:17;4.90;;;4.33;;
19341;SDS011;9807;48.258;12.690;2022-10-31T08:05:44;4.53;;;4.07;;
19341;SDS011;9807;48.258;12.690;2022-10-31T08:08:11;20.77;;;5.23;;
19341;SDS011;9807;48.258;12.690;2022-10-31T08:10:38;10.53;;;4.93;;
19341;SDS011;9807;48.258;12.690;2022-10-31T08:13:06;14.80;;;4.70;;
19341;SDS011;9807;48.258;12.690;2022-10-31T08:15:33;4.47;;;3.77;;
19341;SDS011;9807;48.258;12.690;2022-10-31T08:18:02;23.70;;;5.23;;
19341;SDS011;9807;48.258;12.690;2022-10-31T08:20:28;12.37;;;4.90;;
19341;SDS011;9807;48.258;12.690;2022-10-31T08:22:55;5.60;;;4.03;;
19341;SDS011;9807;48.258;12.690;2022-10-31T08:25:25;4.03;;;3.60;;
19341;SDS011;9807;48.258;12.690;2022-10-31T08:27:52;5.17;;;4.20;;
19341;SDS011;9807;48.258;12.690;2022-10-31T08:30:19;8.10;;;3.77;;
19341;SDS011;9807;48.258;12.690;2022-10-31T08:33:06;4.30;;;3.43;;
19341;SDS011;9807;48.258;12.690;2022-10-31T08:35:36;6.03;;;4.00;;
19341;SDS011;9807;48.258;12.690;2022-10-31T08:38:02;5.67;;;4.27;;
19341;SDS011;9807;48.258;12.690;2022-10-31T08:40:33;4.90;;;3.70;;
19341;SDS011;9807;48.258;12.690;2022-10-31T08:43:03;4.60;;;3.80;;
19341;SDS011;9807;48.258;12.690;2022-10-31T08:45:40;5.07;;;4.07;;
19341;SDS011;9807;48.258;12.690;2022-10-31T08:48:09;11.70;;;5.30;;
19341;SDS011;9807;48.258;12.690;2022-10-31T08:50:37;4.63;;;4.13;;
19341;SDS011;9807;48.258;12.690;2022-10-31T08:53:04;4.00;;;3.60;;
19341;SDS011;9807;48.258;12.690;2022-10-31T08:55:40;4.47;;;3.87;;
19341;SDS011;9807;48.258;12.690;2022-10-31T08:58:12;4.43;;;3.63;;
19341;SDS011;9807;48.258;12.690;2022-10-31T09:00:41;6.33;;;4.23;;
19341;SDS011;9807;48.258;12.690;2022-10-31T09:03:17;5.17;;;3.90;;
19341;SDS011;9807;48.258;12.690;2022-10-31T09:05:54;4.80;;;4.10;;
19341;SDS011;9807;48.258;12.690;2022-10-31T09:08:21;5.07;;;4.43;;
19341;SDS011;9807;48.258;12.690;2022-10-31T09:10:46;4.70;;;4.20;;
19341;SDS011;9807;48.258;12.690;2022-10-31T09:13:13;6.87;;;4.30;;
19341;SDS011;9807;48.258;12.690;2022-10-31T09:15:42;5.03;;;4.00;;
19341;SDS011;9807;48.258;12.690;2022-10-31T09:18:10;5.53;;;4.20;;
19341;SDS011;9807;48.258;12.690;2022-10-31T09:20:37;5.70;;;4.50;;
19341;SDS011;9807;48.258;12.690;2022-10-31T09:23:14;7.17;;;5.00;;
19341;SDS011;9807;48.258;12.690;2022-10-31T09:25:41;7.20;;;4.67;;
19341;SDS011;9807;48.258;12.690;2022-10-31T09:28:12;6.67;;;5.27;;
19341;SDS011;9807;48.258;12.690;2022-10-31T09:30:39;5.57;;;4.80;;
19341;SDS011;9807;48.258;12.690;2022-10-31T09:33:12;10.33;;;5.47;;
19341;SDS011;9807;48.258;12.690;2022-10-31T09:35:38;8.43;;;5.40;;
19341;SDS011;9807;48.258;12.690;2022-10-31T09:38:06;15.70;;;6.60;;
19341;SDS011;9807;48.258;12.690;2022-10-31T09:46:29;8.93;;;5.00;;
19341;SDS011;9807;48.258;12.690;2022-10-31T09:49:12;9.90;;;6.60;;
19341;SDS011;9807;48.258;12.690;2022-10-31T09:51:42;11.87;;;7.13;;
19341;SDS011;9807;48.258;12.690;2022-10-31T09:56:57;10.53;;;6.10;;
19341;SDS011;9807;48.258;12.690;2022-10-31T09:59:26;13.57;;;6.93;;
19341;SDS011;9807;48.258;12.690;2022-10-31T10:01:58;10.07;;;6.80;;
19341;SDS011;9807;48.258;12.690;2022-10-31T10:09:52;10.77;;;6.37;;
19341;SDS011;9807;48.258;12.690;2022-10-31T10:12:31;12.83;;;6.10;;
19341;SDS011;9807;48.258;12.690;2022-10-31T10:18:05;12.83;;;5.90;;
19341;SDS011;9807;48.258;12.690;2022-10-31T10:20:37;14.10;;;6.60;;
19341;SDS011;9807;48.258;12.690;2022-10-31T10:26:15;15.40;;;6.80;;
19341;SDS011;9807;48.258;12.690;2022-10-31T10:28:51;15.43;;;7.03;;
19341;SDS011;9807;48.258;12.690;2022-10-31T10:31:30;11.00;;;6.23;;
19341;SDS011;9807;48.258;12.690;2022-10-31T10:34:12;17.53;;;7.77;;
19341;SDS011;9807;48.258;12.690;2022-10-31T10:36:46;13.10;;;6.80;;
19341;SDS011;9807;48.258;12.690;2022-10-31T10:39:23;18.57;;;7.20;;
19341;SDS011;9807;48.258;12.690;2022-10-31T10:41:57;15.50;;;7.20;;
19341;SDS011;9807;48.258;12.690;2022-10-31T10:44:46;18.57;;;7.10;;
19341;SDS011;9807;48.258;12.690;2022-10-31T10:47:42;10.80;;;6.77;;
19341;SDS011;9807;48.258;12.690;2022-10-31T10:50:24;14.07;;;7.10;;
19341;SDS011;9807;48.258;12.690;2022-10-31T10:53:01;15.20;;;7.13;;
19341;SDS011;9807;48.258;12.690;2022-10-31T10:58:15;16.53;;;6.70;;
19341;SDS011;9807;48.258;12.690;2022-10-31T11:00:42;16.20;;;6.90;;
19341;SDS011;9807;48.258;12.690;2022-10-31T11:03:13;15.67;;;7.50;;
19341;SDS011;9807;48.258;12.690;2022-10-31T11:05:53;14.97;;;7.33;;
19341;SDS011;9807;48.258;12.690;2022-10-31T11:10:59;14.63;;;6.40;;
19341;SDS011;9807;48.258;12.690;2022-10-31T11:13:51;12.43;;;6.67;;
19341;SDS011;9807;48.258;12.690;2022-10-31T11:18:51;18.47;;;6.80;;
19341;SDS011;9807;48.258;12.690;2022-10-31T11:23:48;14.73;;;6.80;;
19341;SDS011;9807;48.258;12.690;2022-10-31T11:26:20;15.63;;;8.00;;
19341;SDS011;9807;48.258;12.690;2022-10-31T11:28:55;17.87;;;8.30;;
19341;SDS011;9807;48.258;12.690;2022-10-31T11:31:28;17.63;;;8.57;;
19341;SDS011;9807;48.258;12.690;2022-10-31T11:33:58;17.20;;;7.90;;
19341;SDS011;9807;48.258;12.690;2022-10-31T11:36:38;16.80;;;7.07;;
19341;SDS011;9807;48.258;12.690;2022-10-31T11:39:13;17.53;;;8.23;;
19341;SDS011;9807;48.258;12.690;2022-10-31T11:41:46;19.23;;;8.00;;
19341;SDS011;9807;48.258;12.690;2022-10-31T11:44:17;19.33;;;7.73;;
19341;SDS011;9807;48.258;12.690;2022-10-31T11:46:50;20.23;;;8.27;;
19341;SDS011;9807;48.258;12.690;2022-10-31T11:49:19;22.70;;;7.77;;
19341;SDS011;9807;48.258;12.690;2022-10-31T11:51:51;19.83;;;7.43;;
19341;SDS011;9807;48.258;12.690;2022-10-31T11:54:30;19.80;;;8.23;;
19341;SDS011;9807;48.258;12.690;2022-10-31T11:57:00;18.60;;;8.20;;
19341;SDS011;9807;48.258;12.690;2022-10-31T11:59:30;19.13;;;7.83;;
19341;SDS011;9807;48.258;12.690;2022-10-31T12:01:57;20.60;;;8.53;;
19341;SDS011;9807;48.258;12.690;2022-10-31T12:04:38;19.53;;;7.50;;
19341;SDS011;9807;48.258;12.690;2022-10-31T12:07:08;15.80;;;6.97;;
19341;SDS011;9807;48.258;12.690;2022-10-31T12:09:35;18.00;;;7.57;;
19341;SDS011;9807;48.258;12.690;2022-10-31T12:14:51;20.70;;;7.97;;
19341;SDS011;9807;48.258;12.690;2022-10-31T12:17:33;17.27;;;7.10;;
19341;SDS011;9807;48.258;12.690;2022-10-31T12:22:50;17.17;;;6.53;;
19341;SDS011;9807;48.258;12.690;2022-10-31T12:33:37;16.87;;;6.90;;
19341;SDS011;9807;48.258;12.690;2022-10-31T12:44:50;17.10;;;5.90;;
19341;SDS011;9807;48.258;12.690;2022-10-31T12:58:39;15.63;;;6.27;;
19341;SDS011;9807;48.258;12.690;2022-10-31T13:01:46;15.87;;;6.43;;
19341;SDS011;9807;48.258;12.690;2022-10-31T13:07:06;18.00;;;6.60;;
19341;SDS011;9807;48.258;12.690;2022-10-31T13:12:38;10.07;;;5.90;;
19341;SDS011;9807;48.258;12.690;2022-10-31T13:15:16;14.63;;;5.60;;
19341;SDS011;9807;48.258;12.690;2022-10-31T13:17:57;9.93;;;5.03;;
19341;SDS011;9807;48.258;12.690;2022-10-31T13:20:27;18.90;;;5.73;;
19341;SDS011;9807;48.258;12.690;2022-10-31T13:25:50;10.67;;;4.67;;
19341;SDS011;9807;48.258;12.690;2022-10-31T13:28:29;17.67;;;5.57;;
19341;SDS011;9807;48.258;12.690;2022-10-31T13:31:09;9.17;;;5.07;;
19341;SDS011;9807;48.258;12.690;2022-10-31T13:33:38;8.97;;;5.07;;
19341;SDS011;9807;48.258;12.690;2022-10-31T13:38:59;19.87;;;6.03;;
19341;SDS011;9807;48.258;12.690;2022-10-31T13:41:48;14.33;;;5.93;;
19341;SDS011;9807;48.258;12.690;2022-10-31T13:44:35;13.37;;;5.97;;
19341;SDS011;9807;48.258;12.690;2022-10-31T13:50:02;23.57;;;7.50;;
19341;SDS011;9807;48.258;12.690;2022-10-31T13:52:44;24.13;;;7.93;;
19341;SDS011;9807;48.258;12.690;2022-10-31T13:58:03;12.87;;;6.20;;
19341;SDS011;9807;48.258;12.690;2022-10-31T14:00:30;9.37;;;4.90;;
19341;SDS011;9807;48.258;12.690;2022-10-31T14:03:01;9.67;;;5.07;;
19341;SDS011;9807;48.258;12.690;2022-10-31T14:05:29;15.77;;;6.53;;
19341;SDS011;9807;48.258;12.690;2022-10-31T14:07:57;11.87;;;5.97;;
19341;SDS011;9807;48.258;12.690;2022-10-31T14:10:27;17.47;;;6.17;;
19341;SDS011;9807;48.258;12.690;2022-10-31T14:13:16;11.47;;;5.40;;
19341;SDS011;9807;48.258;12.690;2022-10-31T14:15:56;11.50;;;5.17;;
19341;SDS011;9807;48.258;12.690;2022-10-31T14:18:36;14.77;;;5.07;;
19341;SDS011;9807;48.258;12.690;2022-10-31T14:23:40;11.97;;;5.30;;
19341;SDS011;9807;48.258;12.690;2022-10-31T14:28:45;12.40;;;5.13;;
19341;SDS011;9807;48.258;12.690;2022-10-31T14:37:32;9.17;;;4.90;;
19341;SDS011;9807;48.258;12.690;2022-10-31T14:40:27;9.47;;;4.80;;
19341;SDS011;9807;48.258;12.690;2022-10-31T14:43:16;10.97;;;5.20;;
19341;SDS011;9807;48.258;12.690;2022-10-31T14:46:02;7.30;;;4.13;;
19341;SDS011;9807;48.258;12.690;2022-10-31T14:51:36;15.67;;;6.80;;
19341;SDS011;9807;48.258;12.690;2022-10-31T14:54:06;13.73;;;6.30;;
19341;SDS011;9807;48.258;12.690;2022-10-31T14:56:41;9.73;;;4.50;;
19341;SDS011;9807;48.258;12.690;2022-10-31T14:59:33;10.07;;;5.00;;
19341;SDS011;9807;48.258;12.690;2022-10-31T15:04:43;8.80;;;4.00;;
19341;SDS011;9807;48.258;12.690;2022-10-31T15:09:44;7.40;;;4.40;;
19341;SDS011;9807;48.258;12.690;2022-10-31T15:12:29;8.47;;;3.83;;
19341;SDS011;9807;48.258;12.690;2022-10-31T15:14:57;9.97;;;4.23;;
19341;SDS011;9807;48.258;12.690;2022-10-31T15:17:26;14.50;;;6.00;;
19341;SDS011;9807;48.258;12.690;2022-10-31T15:19:53;8.00;;;4.60;;
19341;SDS011;9807;48.258;12.690;2022-10-31T15:22:20;15.90;;;5.10;;
19341;SDS011;9807;48.258;12.690;2022-10-31T15:24:48;6.67;;;4.37;;
19341;SDS011;9807;48.258;12.690;2022-10-31T15:27:21;5.37;;;3.67;;
19341;SDS011;9807;48.258;12.690;2022-10-31T15:29:51;7.80;;;4.43;;
19341;SDS011;9807;48.258;12.690;2022-10-31T15:32:23;7.10;;;3.83;;
19341;SDS011;9807;48.258;12.690;2022-10-31T15:34:53;9.33;;;4.43;;
19341;SDS011;9807;48.258;12.690;2022-10-31T15:37:21;8.50;;;4.50;;
19341;SDS011;9807;48.258;12.690;2022-10-31T15:39:49;9.93;;;4.93;;
19341;SDS011;9807;48.258;12.690;2022-10-31T15:42:23;10.40;;;4.93;;
19341;SDS011;9807;48.258;12.690;2022-10-31T15:45:15;8.73;;;4.63;;
19341;SDS011;9807;48.258;12.690;2022-10-31T15:50:28;9.83;;;4.30;;
19341;SDS011;9807;48.258;12.690;2022-10-31T15:53:02;7.73;;;4.17;;
19341;SDS011;9807;48.258;12.690;2022-10-31T15:55:29;6.17;;;3.87;;
19341;SDS011;9807;48.258;12.690;2022-10-31T15:57:58;13.17;;;6.13;;
19341;SDS011;9807;48.258;12.690;2022-10-31T16:00:35;12.07;;;5.73;;
19341;SDS011;9807;48.258;12.690;2022-10-31T16:03:54;9.40;;;4.80;;
19341;SDS011;9807;48.258;12.690;2022-10-31T16:05:55;6.13;;;4.10;;
19341;SDS011;9807;48.258;12.690;2022-10-31T16:08:32;10.80;;;5.77;;
19341;SDS011;9807;48.258;12.690;2022-10-31T16:13:32;6.73;;;4.10;;
19341;SDS011;9807;48.258;12.690;2022-10-31T16:16:12;11.30;;;5.10;;
19341;SDS011;9807;48.258;12.690;2022-10-31T16:18:39;7.67;;;4.77;;
19341;SDS011;9807;48.258;12.690;2022-10-31T16:21:06;7.17;;;4.43;;
19341;SDS011;9807;48.258;12.690;2022-10-31T16:23:34;11.83;;;5.80;;
19341;SDS011;9807;48.258;12.690;2022-10-31T16:26:07;8.83;;;3.90;;
19341;SDS011;9807;48.258;12.690;2022-10-31T16:28:33;9.37;;;4.10;;
19341;SDS011;9807;48.258;12.690;2022-10-31T16:31:12;7.73;;;3.90;;
19341;SDS011;9807;48.258;12.690;2022-10-31T16:33:38;5.50;;;4.03;;
19341;SDS011;9807;48.258;12.690;2022-10-31T16:38:58;15.63;;;6.57;;
19341;SDS011;9807;48.258;12.690;2022-10-31T16:41:23;20.57;;;9.17;;
19341;SDS011;9807;48.258;12.690;2022-10-31T16:43:50;12.27;;;6.70;;
19341;SDS011;9807;48.258;12.690;2022-10-31T16:46:22;7.87;;;4.40;;
19341;SDS011;9807;48.258;12.690;2022-10-31T16:48:52;6.70;;;3.97;;
19341;SDS011;9807;48.258;12.690;2022-10-31T16:51:21;6.53;;;3.80;;
19341;SDS011;9807;48.258;12.690;2022-10-31T16:53:46;9.60;;;4.70;;
19341;SDS011;9807;48.258;12.690;2022-10-31T16:56:16;8.00;;;4.80;;
19341;SDS011;9807;48.258;12.690;2022-10-31T16:58:45;7.70;;;4.33;;
19341;SDS011;9807;48.258;12.690;2022-10-31T17:01:14;8.00;;;4.37;;
19341;SDS011;9807;48.258;12.690;2022-10-31T17:03:39;7.10;;;4.07;;
19341;SDS011;9807;48.258;12.690;2022-10-31T17:06:05;5.47;;;4.00;;
19341;SDS011;9807;48.258;12.690;2022-10-31T17:08:30;6.50;;;4.10;;
19341;SDS011;9807;48.258;12.690;2022-10-31T17:10:58;9.77;;;4.43;;
19341;SDS011;9807;48.258;12.690;2022-10-31T17:13:28;5.10;;;3.90;;
19341;SDS011;9807;48.258;12.690;2022-10-31T17:15:56;5.90;;;4.10;;